Airports Denmark Billund Airport

Billund Airport (EKBI / BLL)

Facts about Billund Airport

Name Billund Airport
City Billund
Country Denmark
ICAO code EKBI
IATA code BLL
Elevation 75.2856 meters (247 feet)

Weather

METAR

Metar data retrieved Friday, 19 July 2024 at 23:55 UTC (23 minutes ago)

EKBI 192320Z AUTO 12003KT 9999 NCD 13/12 Q1018

Live traffic

Navigraph Charts (account required)